Stations météo

réclame
Mon MeteoGroup
Mannheim City Airport, Allemagne (10730): Température de l'air & dewpoint: 17.04.2018 04:00:00 - 23.04.2018 04:00:00 (CEST)Mannheim City Airport, Allemagne (10730): Vitesse du vent: 17.04.2018 04:00:00 - 23.04.2018 04:00:00 (CEST)Mannheim City Airport, Allemagne (10730): Direction du vent: 17.04.2018 04:00:00 - 23.04.2018 04:00:00 (CEST)Mannheim City Airport, Allemagne (10730): visibility: 17.04.2018 04:00:00 - 23.04.2018 04:00:00 (CEST)
Date & Time tt [°C] td [°C] ff [km/h] ff [knt] dd vv [km]
23.04.2018 04:00:00 - - - - - -
23.04.2018 03:00:00 - - - - - -
23.04.2018 02:00:00 - - - - - -
23.04.2018 01:00:00 - - - - - -
23.04.2018 00:00:00 - - - - - -
22.04.2018 23:00:00 - - - - - -
22.04.2018 22:00:00 - - - - - -
22.04.2018 21:00:00 - - - - - -
22.04.2018 20:00:00 26,0 5,0 11 6 WSW 10
22.04.2018 19:00:00 27,0 7,0 13 7 WSW 10
22.04.2018 18:00:00 28,0 7,0 16 9 SW 10
22.04.2018 17:00:00 28,0 9,0 15 8 SW 10
22.04.2018 16:00:00 27,0 9,0 13 7 S 10
22.04.2018 15:00:00 28,0 10,0 13 7 S 10
22.04.2018 14:00:00 26,0 13,0 11 6 S 10
22.04.2018 13:00:00 25,0 12,0 9 5 SSE 10
22.04.2018 12:00:00 22,0 11,0 9 5 SSW 10
22.04.2018 11:00:00 21,0 12,0 8 4 SW 10
22.04.2018 10:00:00 19,0 13,0 4 2 - 10
22.04.2018 09:00:00 18,0 14,0 4 2 - 10
22.04.2018 08:00:00 15,0 15,0 2 1 - 10
22.04.2018 07:00:00 - - - - - -
22.04.2018 06:00:00 - - - - - -
22.04.2018 05:00:00 - - - - - -
22.04.2018 04:00:00 - - - - - -
22.04.2018 03:00:00 - - - - - -
22.04.2018 02:00:00 - - - - - -
22.04.2018 01:00:00 - - - - - -
22.04.2018 00:00:00 - - - - - -
21.04.2018 23:00:00 - - - - - -
21.04.2018 22:00:00 19,0 12,0 4 2 - 10
21.04.2018 21:00:00 21,0 11,0 5 3 NNE 10
21.04.2018 20:00:00 25,0 9,0 9 5 N 10
21.04.2018 19:00:00 26,0 9,0 8 4 NE 10
21.04.2018 18:00:00 27,0 9,0 9 5 ENE 10
21.04.2018 17:00:00 27,0 11,0 8 4 - 10
21.04.2018 16:00:00 26,0 10,0 9 5 ENE 10
21.04.2018 15:00:00 27,0 11,0 8 4 - 10
21.04.2018 14:00:00 26,0 11,0 5 3 - 10
21.04.2018 13:00:00 24,0 11,0 8 4 WNW 10
21.04.2018 12:00:00 23,0 10,0 4 2 - 10
21.04.2018 11:00:00 21,0 11,0 4 2 - 10
21.04.2018 10:00:00 18,0 10,0 4 2 - 10
21.04.2018 09:00:00 16,0 11,0 4 2 - 10
21.04.2018 08:00:00 15,0 13,0 4 2 - 10
21.04.2018 07:00:00 - - - - - -
21.04.2018 06:00:00 - - - - - -
21.04.2018 05:00:00 - - - - - -
21.04.2018 04:00:00 - - - - - -
21.04.2018 03:00:00 - - - - - -
21.04.2018 02:00:00 - - - - - -
21.04.2018 01:00:00 - - - - - -
21.04.2018 00:00:00 - - - - - -
20.04.2018 23:00:00 - - - - - -
20.04.2018 22:00:00 - - - - - -
20.04.2018 21:00:00 20,0 8,0 0 0 N 10
20.04.2018 20:00:00 25,0 6,0 4 2 - 10
20.04.2018 19:00:00 27,0 7,0 5 3 - 10
20.04.2018 18:00:00 28,0 6,0 4 2 - 10
20.04.2018 17:00:00 27,0 6,0 4 2 - 10
20.04.2018 16:00:00 27,0 8,0 4 2 - 10
20.04.2018 15:00:00 26,0 8,0 4 2 - 10
20.04.2018 14:00:00 25,0 8,0 5 3 - 10
20.04.2018 13:00:00 24,0 9,0 5 3 - 10
20.04.2018 12:00:00 23,0 9,0 4 2 - 10
20.04.2018 11:00:00 22,0 8,0 5 3 - 10
20.04.2018 10:00:00 19,0 9,0 4 2 - 10
20.04.2018 09:00:00 17,0 8,0 4 2 - 10
20.04.2018 08:00:00 14,0 8,0 4 2 - 10
20.04.2018 07:00:00 12,0 8,0 5 3 - 10
20.04.2018 06:00:00 12,0 8,0 5 3 - 10
20.04.2018 05:00:00 - - - - - -
20.04.2018 04:00:00 - - - - - -
20.04.2018 03:00:00 - - - - - -
20.04.2018 02:00:00 - - - - - -
20.04.2018 01:00:00 - - - - - -
20.04.2018 00:00:00 - - - - - -
19.04.2018 23:00:00 - - - - - -
19.04.2018 22:00:00 - - - - - -
19.04.2018 21:00:00 22,0 6,0 5 3 E 10
19.04.2018 20:00:00 26,0 5,0 9 5 ESE 10
19.04.2018 19:00:00 27,0 5,0 13 7 SE 10
19.04.2018 18:00:00 28,0 5,0 15 8 SE 10
19.04.2018 17:00:00 28,0 7,0 9 5 ENE 10
19.04.2018 16:00:00 27,0 7,0 5 3 - 10
19.04.2018 15:00:00 26,0 6,0 4 2 - 10
19.04.2018 14:00:00 25,0 8,0 8 4 NW 10
19.04.2018 13:00:00 24,0 7,0 5 3 - 10
19.04.2018 12:00:00 23,0 7,0 8 4 S 10
19.04.2018 11:00:00 22,0 7,0 8 4 - 10
19.04.2018 10:00:00 20,0 9,0 5 3 - 10
19.04.2018 09:00:00 18,0 11,0 5 3 WSW 10
19.04.2018 08:00:00 14,0 10,0 4 2 - 10
19.04.2018 07:00:00 11,0 9,0 5 3 - 10
19.04.2018 06:00:00 10,0 9,0 4 2 N 10
19.04.2018 05:00:00 - - - - - -
19.04.2018 04:00:00 - - - - - -
19.04.2018 03:00:00 - - - - - -
19.04.2018 02:00:00 - - - - - -
19.04.2018 01:00:00 - - - - - -
19.04.2018 00:00:00 - - - - - -
18.04.2018 23:00:00 - - - - - -
18.04.2018 22:00:00 19,0 7,0 8 4 NE 10
18.04.2018 21:00:00 20,0 6,0 8 4 NE 10
18.04.2018 20:00:00 24,0 5,0 13 7 E 10
18.04.2018 19:00:00 25,0 3,0 15 8 E 10
18.04.2018 18:00:00 26,0 3,0 15 8 ESE 10
18.04.2018 17:00:00 26,0 4,0 13 7 E 10
18.04.2018 16:00:00 26,0 6,0 8 4 NNE 10
18.04.2018 15:00:00 26,0 9,0 5 3 - 10
18.04.2018 14:00:00 24,0 7,0 8 4 N 10
18.04.2018 13:00:00 24,0 8,0 4 2 - 10
18.04.2018 12:00:00 21,0 8,0 4 2 - 10
18.04.2018 11:00:00 19,0 9,0 4 2 - 10
18.04.2018 10:00:00 16,0 10,0 4 2 - 10
18.04.2018 09:00:00 14,0 10,0 8 4 NNW 10
18.04.2018 08:00:00 13,0 10,0 5 3 - 10
18.04.2018 07:00:00 9,0 9,0 2 1 - 10
18.04.2018 06:00:00 9,0 9,0 0 0 N 10
18.04.2018 05:00:00 - - - - - -
18.04.2018 04:00:00 - - - - - -
18.04.2018 03:00:00 - - - - - -
18.04.2018 02:00:00 - - - - - -
18.04.2018 01:00:00 - - - - - -
18.04.2018 00:00:00 - - - - - -
17.04.2018 23:00:00 - - - - - -
17.04.2018 22:00:00 - - - - - -
17.04.2018 21:00:00 18,0 8,0 4 2 - 10
17.04.2018 20:00:00 22,0 5,0 4 2 NE 10
17.04.2018 19:00:00 23,0 4,0 4 2 - 10
17.04.2018 18:00:00 23,0 5,0 8 4 E 10
17.04.2018 17:00:00 23,0 4,0 5 3 - 10
17.04.2018 16:00:00 22,0 5,0 5 3 - 10
17.04.2018 15:00:00 22,0 6,0 11 6 W 10
17.04.2018 14:00:00 21,0 7,0 5 3 - 10
17.04.2018 13:00:00 20,0 8,0 8 4 NNE 10
17.04.2018 12:00:00 19,0 9,0 2 1 - 10
17.04.2018 11:00:00 17,0 9,0 4 2 - 10
17.04.2018 10:00:00 15,0 9,0 2 1 - 10
17.04.2018 09:00:00 13,0 9,0 2 1 - 10
17.04.2018 08:00:00 10,0 10,0 0 0 N 10
17.04.2018 07:00:00 8,0 8,0 0 0 N 10
17.04.2018 06:00:00 9,0 9,0 0 0 N 10
17.04.2018 05:00:00 - - - - - -
17.04.2018 04:00:00 - - - - - -

tt = Température de l'air
td = dewpoint
ff = Vitesse du vent
dd = Direction du vent
vv = visibility

stations d'obs. à proximité